sensor_id;sensor_type;location;lat;lon;timestamp;P1;durP1;ratioP1;P2;durP2;ratioP2
50433;SDS011;36361;38.954;-9.002;2023-02-26T00:00:13;15.33;;;4.13;;
50433;SDS011;36361;38.954;-9.002;2023-02-26T00:01:16;8.53;;;4.00;;
50433;SDS011;36361;38.954;-9.002;2023-02-26T00:02:20;7.97;;;3.27;;
50433;SDS011;36361;38.954;-9.002;2023-02-26T00:03:22;11.30;;;4.13;;
50433;SDS011;36361;38.954;-9.002;2023-02-26T00:04:30;8.27;;;3.10;;
50433;SDS011;36361;38.954;-9.002;2023-02-26T00:05:32;13.07;;;3.70;;
50433;SDS011;36361;38.954;-9.002;2023-02-26T00:06:35;6.23;;;2.57;;
50433;SDS011;36361;38.954;-9.002;2023-02-26T00:07:51;8.70;;;2.30;;
50433;SDS011;36361;38.954;-9.002;2023-02-26T00:08:54;8.97;;;2.33;;
50433;SDS011;36361;38.954;-9.002;2023-02-26T00:09:56;6.33;;;1.80;;
50433;SDS011;36361;38.954;-9.002;2023-02-26T00:10:59;8.37;;;2.20;;
50433;SDS011;36361;38.954;-9.002;2023-02-26T00:12:04;6.33;;;2.30;;
50433;SDS011;36361;38.954;-9.002;2023-02-26T00:13:07;8.30;;;1.97;;
50433;SDS011;36361;38.954;-9.002;2023-02-26T00:14:13;8.67;;;2.20;;
50433;SDS011;36361;38.954;-9.002;2023-02-26T00:15:15;5.73;;;1.77;;
50433;SDS011;36361;38.954;-9.002;2023-02-26T00:17:43;12.17;;;2.37;;
50433;SDS011;36361;38.954;-9.002;2023-02-26T00:18:46;7.80;;;1.90;;
50433;SDS011;36361;38.954;-9.002;2023-02-26T00:19:49;6.40;;;1.73;;
50433;SDS011;36361;38.954;-9.002;2023-02-26T00:20:51;5.47;;;2.20;;
50433;SDS011;36361;38.954;-9.002;2023-02-26T00:21:54;8.03;;;1.87;;
50433;SDS011;36361;38.954;-9.002;2023-02-26T00:22:56;10.40;;;2.90;;
50433;SDS011;36361;38.954;-9.002;2023-02-26T00:23:59;12.13;;;3.23;;
50433;SDS011;36361;38.954;-9.002;2023-02-26T00:25:01;8.37;;;2.00;;
50433;SDS011;36361;38.954;-9.002;2023-02-26T00:26:04;7.07;;;1.63;;
50433;SDS011;36361;38.954;-9.002;2023-02-26T00:27:06;7.43;;;2.03;;
50433;SDS011;36361;38.954;-9.002;2023-02-26T00:28:09;7.13;;;2.37;;
50433;SDS011;36361;38.954;-9.002;2023-02-26T00:29:11;5.50;;;1.50;;
50433;SDS011;36361;38.954;-9.002;2023-02-26T00:30:14;7.17;;;2.10;;
50433;SDS011;36361;38.954;-9.002;2023-02-26T00:31:16;5.77;;;1.87;;
50433;SDS011;36361;38.954;-9.002;2023-02-26T00:32:29;7.63;;;2.10;;
50433;SDS011;36361;38.954;-9.002;2023-02-26T00:33:31;7.40;;;1.93;;
50433;SDS011;36361;38.954;-9.002;2023-02-26T00:34:34;7.83;;;2.10;;
50433;SDS011;36361;38.954;-9.002;2023-02-26T00:35:39;7.77;;;2.03;;
50433;SDS011;36361;38.954;-9.002;2023-02-26T00:37:26;13.73;;;2.30;;
50433;SDS011;36361;38.954;-9.002;2023-02-26T00:38:21;6.57;;;2.20;;
50433;SDS011;36361;38.954;-9.002;2023-02-26T00:41:07;8.70;;;2.73;;
50433;SDS011;36361;38.954;-9.002;2023-02-26T00:42:02;13.05;;;3.63;;
50433;SDS011;36361;38.954;-9.002;2023-02-26T00:43:06;10.20;;;3.80;;
50433;SDS011;36361;38.954;-9.002;2023-02-26T00:44:13;10.27;;;3.63;;
50433;SDS011;36361;38.954;-9.002;2023-02-26T00:45:16;10.13;;;4.17;;
50433;SDS011;36361;38.954;-9.002;2023-02-26T00:46:24;7.80;;;3.07;;
50433;SDS011;36361;38.954;-9.002;2023-02-26T00:53:02;4.37;;;1.30;;
50433;SDS011;36361;38.954;-9.002;2023-02-26T00:54:26;7.00;;;1.63;;
50433;SDS011;36361;38.954;-9.002;2023-02-26T00:55:29;8.37;;;1.77;;
50433;SDS011;36361;38.954;-9.002;2023-02-26T00:56:32;12.80;;;2.00;;
50433;SDS011;36361;38.954;-9.002;2023-02-26T00:57:34;7.47;;;1.47;;
50433;SDS011;36361;38.954;-9.002;2023-02-26T00:58:37;14.10;;;1.97;;
50433;SDS011;36361;38.954;-9.002;2023-02-26T00:59:39;8.97;;;2.27;;
50433;SDS011;36361;38.954;-9.002;2023-02-26T01:00:41;10.17;;;1.93;;
50433;SDS011;36361;38.954;-9.002;2023-02-26T01:01:43;3.73;;;1.30;;
50433;SDS011;36361;38.954;-9.002;2023-02-26T01:02:46;5.63;;;1.40;;
50433;SDS011;36361;38.954;-9.002;2023-02-26T01:03:50;6.30;;;1.80;;
50433;SDS011;36361;38.954;-9.002;2023-02-26T01:04:55;8.40;;;1.90;;
50433;SDS011;36361;38.954;-9.002;2023-02-26T01:05:58;7.63;;;1.97;;
50433;SDS011;36361;38.954;-9.002;2023-02-26T01:07:02;7.63;;;1.83;;
50433;SDS011;36361;38.954;-9.002;2023-02-26T01:09:32;8.97;;;1.40;;
50433;SDS011;36361;38.954;-9.002;2023-02-26T01:10:35;7.60;;;1.77;;
50433;SDS011;36361;38.954;-9.002;2023-02-26T01:11:37;4.87;;;1.50;;
50433;SDS011;36361;38.954;-9.002;2023-02-26T01:12:40;10.57;;;2.10;;
50433;SDS011;36361;38.954;-9.002;2023-02-26T01:13:42;8.00;;;2.07;;
50433;SDS011;36361;38.954;-9.002;2023-02-26T01:14:45;5.60;;;1.50;;
50433;SDS011;36361;38.954;-9.002;2023-02-26T01:15:47;5.87;;;1.97;;
50433;SDS011;36361;38.954;-9.002;2023-02-26T01:17:07;7.17;;;1.67;;
50433;SDS011;36361;38.954;-9.002;2023-02-26T01:20:53;5.93;;;2.33;;
50433;SDS011;36361;38.954;-9.002;2023-02-26T01:22:07;5.50;;;2.00;;
50433;SDS011;36361;38.954;-9.002;2023-02-26T01:23:16;6.20;;;1.80;;
50433;SDS011;36361;38.954;-9.002;2023-02-26T01:24:19;5.97;;;2.30;;
50433;SDS011;36361;38.954;-9.002;2023-02-26T01:26:28;7.03;;;1.90;;
50433;SDS011;36361;38.954;-9.002;2023-02-26T01:27:35;9.43;;;2.33;;
50433;SDS011;36361;38.954;-9.002;2023-02-26T01:28:36;5.40;;;1.77;;
50433;SDS011;36361;38.954;-9.002;2023-02-26T01:29:37;6.70;;;2.90;;
50433;SDS011;36361;38.954;-9.002;2023-02-26T01:30:38;7.97;;;2.83;;
50433;SDS011;36361;38.954;-9.002;2023-02-26T01:36:55;11.37;;;2.53;;
50433;SDS011;36361;38.954;-9.002;2023-02-26T01:38:03;6.33;;;2.10;;
50433;SDS011;36361;38.954;-9.002;2023-02-26T01:42:17;6.40;;;1.63;;
50433;SDS011;36361;38.954;-9.002;2023-02-26T01:43:22;6.40;;;1.70;;
50433;SDS011;36361;38.954;-9.002;2023-02-26T01:44:41;8.33;;;1.70;;
50433;SDS011;36361;38.954;-9.002;2023-02-26T01:46:04;5.77;;;1.87;;
50433;SDS011;36361;38.954;-9.002;2023-02-26T01:49:48;8.53;;;2.37;;
50433;SDS011;36361;38.954;-9.002;2023-02-26T01:50:48;7.20;;;2.00;;
50433;SDS011;36361;38.954;-9.002;2023-02-26T01:53:25;7.73;;;2.27;;
50433;SDS011;36361;38.954;-9.002;2023-02-26T01:54:20;7.33;;;2.13;;
50433;SDS011;36361;38.954;-9.002;2023-02-26T01:55:23;10.93;;;2.13;;
50433;SDS011;36361;38.954;-9.002;2023-02-26T01:56:32;9.20;;;2.30;;
50433;SDS011;36361;38.954;-9.002;2023-02-26T01:57:33;5.87;;;1.80;;
50433;SDS011;36361;38.954;-9.002;2023-02-26T01:58:34;5.40;;;1.77;;
50433;SDS011;36361;38.954;-9.002;2023-02-26T01:59:40;7.10;;;2.00;;
50433;SDS011;36361;38.954;-9.002;2023-02-26T02:00:44;8.33;;;1.90;;
50433;SDS011;36361;38.954;-9.002;2023-02-26T02:01:45;5.97;;;1.83;;
50433;SDS011;36361;38.954;-9.002;2023-02-26T02:02:45;7.90;;;2.10;;
50433;SDS011;36361;38.954;-9.002;2023-02-26T02:03:46;8.30;;;2.27;;
50433;SDS011;36361;38.954;-9.002;2023-02-26T02:04:47;6.90;;;2.00;;
50433;SDS011;36361;38.954;-9.002;2023-02-26T02:05:56;10.07;;;2.57;;
50433;SDS011;36361;38.954;-9.002;2023-02-26T02:07:03;6.67;;;2.43;;
50433;SDS011;36361;38.954;-9.002;2023-02-26T02:08:05;5.33;;;1.40;;
50433;SDS011;36361;38.954;-9.002;2023-02-26T02:09:06;5.27;;;1.23;;
50433;SDS011;36361;38.954;-9.002;2023-02-26T02:10:08;5.40;;;2.43;;
50433;SDS011;36361;38.954;-9.002;2023-02-26T02:11:10;7.87;;;2.03;;
50433;SDS011;36361;38.954;-9.002;2023-02-26T02:14:55;8.80;;;2.40;;
50433;SDS011;36361;38.954;-9.002;2023-02-26T02:17:35;7.77;;;2.27;;
50433;SDS011;36361;38.954;-9.002;2023-02-26T02:20:25;5.67;;;1.37;;
50433;SDS011;36361;38.954;-9.002;2023-02-26T02:33:15;8.77;;;1.90;;
50433;SDS011;36361;38.954;-9.002;2023-02-26T02:35:46;5.23;;;1.80;;
50433;SDS011;36361;38.954;-9.002;2023-02-26T02:37:00;8.10;;;2.30;;
50433;SDS011;36361;38.954;-9.002;2023-02-26T02:38:22;5.47;;;2.00;;
50433;SDS011;36361;38.954;-9.002;2023-02-26T02:39:28;5.90;;;1.57;;
50433;SDS011;36361;38.954;-9.002;2023-02-26T02:40:34;5.90;;;2.03;;
50433;SDS011;36361;38.954;-9.002;2023-02-26T02:41:41;6.30;;;2.03;;
50433;SDS011;36361;38.954;-9.002;2023-02-26T02:42:49;9.77;;;1.87;;
50433;SDS011;36361;38.954;-9.002;2023-02-26T02:44:00;3.80;;;1.30;;
50433;SDS011;36361;38.954;-9.002;2023-02-26T02:45:06;5.83;;;1.20;;
50433;SDS011;36361;38.954;-9.002;2023-02-26T02:46:12;3.67;;;1.00;;
50433;SDS011;36361;38.954;-9.002;2023-02-26T02:47:17;6.73;;;2.00;;
50433;SDS011;36361;38.954;-9.002;2023-02-26T02:48:31;6.53;;;1.67;;
50433;SDS011;36361;38.954;-9.002;2023-02-26T02:51:01;8.03;;;2.03;;
50433;SDS011;36361;38.954;-9.002;2023-02-26T02:52:18;9.03;;;1.60;;
50433;SDS011;36361;38.954;-9.002;2023-02-26T02:53:36;6.53;;;1.53;;
50433;SDS011;36361;38.954;-9.002;2023-02-26T02:55:04;8.00;;;1.43;;
50433;SDS011;36361;38.954;-9.002;2023-02-26T02:56:15;7.37;;;1.90;;
50433;SDS011;36361;38.954;-9.002;2023-02-26T02:57:33;9.00;;;1.67;;
50433;SDS011;36361;38.954;-9.002;2023-02-26T02:58:40;11.53;;;2.20;;
50433;SDS011;36361;38.954;-9.002;2023-02-26T02:59:47;6.40;;;1.80;;
50433;SDS011;36361;38.954;-9.002;2023-02-26T03:00:53;5.43;;;1.23;;
50433;SDS011;36361;38.954;-9.002;2023-02-26T03:02:02;7.73;;;1.40;;
50433;SDS011;36361;38.954;-9.002;2023-02-26T03:03:14;6.50;;;1.30;;
50433;SDS011;36361;38.954;-9.002;2023-02-26T03:04:22;6.27;;;1.20;;
50433;SDS011;36361;38.954;-9.002;2023-02-26T03:05:26;6.50;;;1.50;;
50433;SDS011;36361;38.954;-9.002;2023-02-26T03:06:27;7.33;;;1.60;;
50433;SDS011;36361;38.954;-9.002;2023-02-26T03:07:31;6.60;;;1.40;;
50433;SDS011;36361;38.954;-9.002;2023-02-26T03:08:44;5.20;;;1.07;;
50433;SDS011;36361;38.954;-9.002;2023-02-26T03:09:49;5.97;;;1.40;;
50433;SDS011;36361;38.954;-9.002;2023-02-26T03:10:50;4.17;;;0.97;;
50433;SDS011;36361;38.954;-9.002;2023-02-26T03:11:51;4.63;;;1.20;;
50433;SDS011;36361;38.954;-9.002;2023-02-26T03:12:52;8.67;;;1.90;;
50433;SDS011;36361;38.954;-9.002;2023-02-26T03:13:53;8.90;;;1.53;;
50433;SDS011;36361;38.954;-9.002;2023-02-26T03:14:59;6.43;;;1.10;;
50433;SDS011;36361;38.954;-9.002;2023-02-26T03:17:54;5.73;;;1.07;;
50433;SDS011;36361;38.954;-9.002;2023-02-26T03:19:20;5.33;;;1.30;;
50433;SDS011;36361;38.954;-9.002;2023-02-26T03:20:30;5.60;;;1.00;;
50433;SDS011;36361;38.954;-9.002;2023-02-26T03:23:14;3.80;;;1.30;;
50433;SDS011;36361;38.954;-9.002;2023-02-26T03:24:36;8.27;;;1.50;;
50433;SDS011;36361;38.954;-9.002;2023-02-26T03:25:49;4.00;;;1.00;;
50433;SDS011;36361;38.954;-9.002;2023-02-26T03:26:55;4.88;;;0.70;;
50433;SDS011;36361;38.954;-9.002;2023-02-26T03:28:21;8.27;;;1.10;;
50433;SDS011;36361;38.954;-9.002;2023-02-26T03:30:50;5.87;;;1.03;;
50433;SDS011;36361;38.954;-9.002;2023-02-26T03:31:56;4.93;;;1.20;;
50433;SDS011;36361;38.954;-9.002;2023-02-26T03:33:02;10.53;;;1.70;;
50433;SDS011;36361;38.954;-9.002;2023-02-26T03:34:31;7.37;;;1.63;;
50433;SDS011;36361;38.954;-9.002;2023-02-26T03:35:58;7.67;;;1.13;;
50433;SDS011;36361;38.954;-9.002;2023-02-26T03:37:07;4.77;;;1.07;;
50433;SDS011;36361;38.954;-9.002;2023-02-26T03:38:24;3.57;;;1.53;;
50433;SDS011;36361;38.954;-9.002;2023-02-26T03:39:55;4.90;;;1.00;;
50433;SDS011;36361;38.954;-9.002;2023-02-26T03:41:01;3.37;;;1.10;;
50433;SDS011;36361;38.954;-9.002;2023-02-26T03:43:43;4.97;;;1.53;;
50433;SDS011;36361;38.954;-9.002;2023-02-26T03:44:52;6.83;;;1.73;;
50433;SDS011;36361;38.954;-9.002;2023-02-26T03:45:59;5.93;;;1.70;;
50433;SDS011;36361;38.954;-9.002;2023-02-26T03:47:05;5.83;;;1.13;;
50433;SDS011;36361;38.954;-9.002;2023-02-26T03:48:09;6.30;;;1.23;;
50433;SDS011;36361;38.954;-9.002;2023-02-26T03:49:17;10.83;;;2.00;;
50433;SDS011;36361;38.954;-9.002;2023-02-26T03:50:45;7.13;;;1.30;;
50433;SDS011;36361;38.954;-9.002;2023-02-26T03:52:29;6.60;;;1.53;;
50433;SDS011;36361;38.954;-9.002;2023-02-26T03:54:02;5.30;;;1.37;;
50433;SDS011;36361;38.954;-9.002;2023-02-26T03:55:16;5.03;;;1.50;;
50433;SDS011;36361;38.954;-9.002;2023-02-26T03:57:06;4.33;;;1.23;;
50433;SDS011;36361;38.954;-9.002;2023-02-26T03:58:42;7.27;;;1.13;;
50433;SDS011;36361;38.954;-9.002;2023-02-26T04:00:13;6.43;;;1.53;;
50433;SDS011;36361;38.954;-9.002;2023-02-26T04:01:21;8.77;;;1.63;;
50433;SDS011;36361;38.954;-9.002;2023-02-26T04:04:05;2.87;;;0.80;;
50433;SDS011;36361;38.954;-9.002;2023-02-26T04:05:15;5.10;;;0.87;;
50433;SDS011;36361;38.954;-9.002;2023-02-26T04:06:22;4.30;;;0.98;;
50433;SDS011;36361;38.954;-9.002;2023-02-26T04:07:24;5.77;;;0.80;;
50433;SDS011;36361;38.954;-9.002;2023-02-26T04:08:26;5.37;;;1.10;;
50433;SDS011;36361;38.954;-9.002;2023-02-26T04:09:28;4.10;;;1.07;;
50433;SDS011;36361;38.954;-9.002;2023-02-26T04:10:51;4.00;;;1.30;;
50433;SDS011;36361;38.954;-9.002;2023-02-26T04:11:53;5.93;;;1.10;;
50433;SDS011;36361;38.954;-9.002;2023-02-26T04:13:00;5.00;;;1.30;;
50433;SDS011;36361;38.954;-9.002;2023-02-26T04:14:01;5.47;;;1.03;;
50433;SDS011;36361;38.954;-9.002;2023-02-26T04:15:04;6.07;;;1.10;;
50433;SDS011;36361;38.954;-9.002;2023-02-26T04:16:09;4.00;;;1.37;;
50433;SDS011;36361;38.954;-9.002;2023-02-26T04:17:10;4.73;;;0.97;;
50433;SDS011;36361;38.954;-9.002;2023-02-26T04:18:11;8.00;;;1.47;;
50433;SDS011;36361;38.954;-9.002;2023-02-26T04:19:11;3.70;;;0.70;;
50433;SDS011;36361;38.954;-9.002;2023-02-26T04:20:14;9.03;;;1.40;;
50433;SDS011;36361;38.954;-9.002;2023-02-26T04:21:19;6.03;;;0.90;;
50433;SDS011;36361;38.954;-9.002;2023-02-26T04:22:21;11.73;;;1.23;;
50433;SDS011;36361;38.954;-9.002;2023-02-26T04:23:22;4.37;;;1.03;;
50433;SDS011;36361;38.954;-9.002;2023-02-26T04:24:23;4.87;;;0.80;;
50433;SDS011;36361;38.954;-9.002;2023-02-26T04:25:24;14.83;;;1.97;;
50433;SDS011;36361;38.954;-9.002;2023-02-26T04:26:26;4.10;;;1.03;;
50433;SDS011;36361;38.954;-9.002;2023-02-26T04:27:27;3.93;;;0.73;;
50433;SDS011;36361;38.954;-9.002;2023-02-26T04:28:28;7.03;;;1.50;;
50433;SDS011;36361;38.954;-9.002;2023-02-26T04:29:30;4.17;;;0.93;;
50433;SDS011;36361;38.954;-9.002;2023-02-26T04:30:31;2.77;;;0.70;;
50433;SDS011;36361;38.954;-9.002;2023-02-26T04:31:32;5.13;;;0.90;;
50433;SDS011;36361;38.954;-9.002;2023-02-26T04:32:33;3.00;;;0.80;;
50433;SDS011;36361;38.954;-9.002;2023-02-26T04:33:34;6.77;;;1.13;;
50433;SDS011;36361;38.954;-9.002;2023-02-26T04:34:36;3.37;;;0.97;;
50433;SDS011;36361;38.954;-9.002;2023-02-26T04:35:37;5.07;;;1.20;;
50433;SDS011;36361;38.954;-9.002;2023-02-26T04:36:38;5.17;;;1.03;;
50433;SDS011;36361;38.954;-9.002;2023-02-26T04:37:39;5.03;;;1.00;;
50433;SDS011;36361;38.954;-9.002;2023-02-26T04:38:40;7.20;;;1.10;;
50433;SDS011;36361;38.954;-9.002;2023-02-26T04:39:40;7.57;;;1.27;;
50433;SDS011;36361;38.954;-9.002;2023-02-26T04:40:43;5.87;;;1.40;;
50433;SDS011;36361;38.954;-9.002;2023-02-26T04:41:47;5.80;;;1.50;;
50433;SDS011;36361;38.954;-9.002;2023-02-26T04:42:48;6.83;;;1.70;;
50433;SDS011;36361;38.954;-9.002;2023-02-26T04:43:54;8.83;;;1.90;;
50433;SDS011;36361;38.954;-9.002;2023-02-26T04:45:04;7.10;;;1.27;;
50433;SDS011;36361;38.954;-9.002;2023-02-26T04:46:07;7.23;;;1.30;;
50433;SDS011;36361;38.954;-9.002;2023-02-26T04:47:09;5.37;;;1.30;;
50433;SDS011;36361;38.954;-9.002;2023-02-26T04:48:12;5.77;;;1.03;;
50433;SDS011;36361;38.954;-9.002;2023-02-26T04:49:13;4.73;;;1.63;;
50433;SDS011;36361;38.954;-9.002;2023-02-26T04:50:17;5.87;;;1.27;;
50433;SDS011;36361;38.954;-9.002;2023-02-26T04:51:21;2.33;;;0.67;;
50433;SDS011;36361;38.954;-9.002;2023-02-26T04:52:24;5.57;;;0.97;;
50433;SDS011;36361;38.954;-9.002;2023-02-26T04:53:25;4.37;;;0.77;;
50433;SDS011;36361;38.954;-9.002;2023-02-26T04:54:28;6.73;;;1.00;;
50433;SDS011;36361;38.954;-9.002;2023-02-26T04:55:35;3.67;;;0.83;;
50433;SDS011;36361;38.954;-9.002;2023-02-26T04:56:38;7.23;;;1.10;;
50433;SDS011;36361;38.954;-9.002;2023-02-26T04:57:40;5.90;;;0.87;;
50433;SDS011;36361;38.954;-9.002;2023-02-26T04:58:41;4.60;;;0.90;;
50433;SDS011;36361;38.954;-9.002;2023-02-26T04:59:47;4.57;;;0.77;;
50433;SDS011;36361;38.954;-9.002;2023-02-26T05:00:49;8.17;;;0.97;;
50433;SDS011;36361;38.954;-9.002;2023-02-26T05:01:51;6.10;;;0.73;;
50433;SDS011;36361;38.954;-9.002;2023-02-26T05:02:52;3.30;;;0.80;;
50433;SDS011;36361;38.954;-9.002;2023-02-26T05:03:53;6.30;;;0.83;;
50433;SDS011;36361;38.954;-9.002;2023-02-26T05:04:54;6.57;;;1.10;;
50433;SDS011;36361;38.954;-9.002;2023-02-26T05:05:54;4.90;;;0.93;;
50433;SDS011;36361;38.954;-9.002;2023-02-26T05:06:55;3.83;;;0.87;;
50433;SDS011;36361;38.954;-9.002;2023-02-26T05:07:56;4.60;;;0.83;;
50433;SDS011;36361;38.954;-9.002;2023-02-26T05:08:57;5.27;;;1.00;;
50433;SDS011;36361;38.954;-9.002;2023-02-26T05:09:57;15.43;;;1.13;;
50433;SDS011;36361;38.954;-9.002;2023-02-26T05:10:58;3.40;;;0.70;;
50433;SDS011;36361;38.954;-9.002;2023-02-26T05:11:59;4.53;;;0.80;;
50433;SDS011;36361;38.954;-9.002;2023-02-26T05:13:00;3.63;;;0.77;;
50433;SDS011;36361;38.954;-9.002;2023-02-26T05:14:04;6.90;;;0.93;;
50433;SDS011;36361;38.954;-9.002;2023-02-26T05:15:05;8.40;;;1.13;;
50433;SDS011;36361;38.954;-9.002;2023-02-26T05:16:06;8.50;;;1.17;;
50433;SDS011;36361;38.954;-9.002;2023-02-26T05:17:08;5.23;;;0.90;;
50433;SDS011;36361;38.954;-9.002;2023-02-26T05:18:09;4.73;;;1.03;;
50433;SDS011;36361;38.954;-9.002;2023-02-26T05:19:10;5.20;;;1.10;;
50433;SDS011;36361;38.954;-9.002;2023-02-26T05:20:12;6.97;;;1.00;;
50433;SDS011;36361;38.954;-9.002;2023-02-26T05:21:14;4.50;;;1.33;;
50433;SDS011;36361;38.954;-9.002;2023-02-26T05:22:15;11.07;;;4.60;;
50433;SDS011;36361;38.954;-9.002;2023-02-26T05:23:16;8.40;;;3.47;;
50433;SDS011;36361;38.954;-9.002;2023-02-26T05:24:17;11.77;;;5.03;;
50433;SDS011;36361;38.954;-9.002;2023-02-26T05:25:17;17.57;;;5.90;;
50433;SDS011;36361;38.954;-9.002;2023-02-26T05:26:19;20.83;;;7.83;;
50433;SDS011;36361;38.954;-9.002;2023-02-26T05:27:20;16.70;;;7.03;;
50433;SDS011;36361;38.954;-9.002;2023-02-26T05:28:21;11.93;;;6.90;;
50433;SDS011;36361;38.954;-9.002;2023-02-26T05:29:23;13.30;;;6.70;;
50433;SDS011;36361;38.954;-9.002;2023-02-26T05:30:27;11.43;;;5.70;;
50433;SDS011;36361;38.954;-9.002;2023-02-26T05:31:28;18.23;;;6.03;;
50433;SDS011;36361;38.954;-9.002;2023-02-26T05:32:29;17.77;;;8.30;;
50433;SDS011;36361;38.954;-9.002;2023-02-26T05:33:30;34.77;;;8.17;;
50433;SDS011;36361;38.954;-9.002;2023-02-26T05:34:31;76.07;;;11.50;;
50433;SDS011;36361;38.954;-9.002;2023-02-26T05:35:31;185.87;;;17.53;;
50433;SDS011;36361;38.954;-9.002;2023-02-26T05:36:32;152.87;;;16.43;;
50433;SDS011;36361;38.954;-9.002;2023-02-26T05:37:33;398.10;;;26.53;;
50433;SDS011;36361;38.954;-9.002;2023-02-26T05:38:33;309.70;;;23.33;;
50433;SDS011;36361;38.954;-9.002;2023-02-26T05:39:34;136.23;;;14.63;;
50433;SDS011;36361;38.954;-9.002;2023-02-26T05:40:35;164.03;;;16.53;;
50433;SDS011;36361;38.954;-9.002;2023-02-26T05:41:36;34.13;;;11.40;;
50433;SDS011;36361;38.954;-9.002;2023-02-26T05:42:37;45.90;;;12.27;;
50433;SDS011;36361;38.954;-9.002;2023-02-26T05:43:38;42.90;;;11.60;;
50433;SDS011;36361;38.954;-9.002;2023-02-26T05:44:39;26.23;;;10.60;;
50433;SDS011;36361;38.954;-9.002;2023-02-26T05:45:39;44.57;;;11.00;;
50433;SDS011;36361;38.954;-9.002;2023-02-26T05:46:40;98.60;;;12.83;;
50433;SDS011;36361;38.954;-9.002;2023-02-26T05:47:41;48.93;;;11.80;;
50433;SDS011;36361;38.954;-9.002;2023-02-26T05:48:42;162.87;;;15.63;;
50433;SDS011;36361;38.954;-9.002;2023-02-26T05:49:43;21.70;;;9.80;;
50433;SDS011;36361;38.954;-9.002;2023-02-26T05:50:43;39.83;;;11.83;;
50433;SDS011;36361;38.954;-9.002;2023-02-26T05:51:44;64.90;;;12.37;;
50433;SDS011;36361;38.954;-9.002;2023-02-26T05:52:45;23.77;;;10.03;;
50433;SDS011;36361;38.954;-9.002;2023-02-26T05:53:46;25.87;;;10.63;;
50433;SDS011;36361;38.954;-9.002;2023-02-26T05:54:47;21.10;;;9.97;;
50433;SDS011;36361;38.954;-9.002;2023-02-26T05:55:47;20.97;;;10.97;;
50433;SDS011;36361;38.954;-9.002;2023-02-26T05:56:49;20.13;;;10.67;;
50433;SDS011;36361;38.954;-9.002;2023-02-26T05:57:50;15.80;;;10.33;;
50433;SDS011;36361;38.954;-9.002;2023-02-26T05:58:51;17.63;;;10.07;;
50433;SDS011;36361;38.954;-9.002;2023-02-26T05:59:51;18.40;;;11.33;;
50433;SDS011;36361;38.954;-9.002;2023-02-26T06:00:52;20.43;;;10.70;;
50433;SDS011;36361;38.954;-9.002;2023-02-26T06:01:53;20.23;;;9.67;;
50433;SDS011;36361;38.954;-9.002;2023-02-26T06:02:54;13.60;;;7.93;;
50433;SDS011;36361;38.954;-9.002;2023-02-26T06:03:54;13.90;;;8.00;;
50433;SDS011;36361;38.954;-9.002;2023-02-26T06:04:55;18.10;;;8.33;;
50433;SDS011;36361;38.954;-9.002;2023-02-26T06:05:58;16.27;;;8.30;;
50433;SDS011;36361;38.954;-9.002;2023-02-26T06:06:59;14.57;;;7.17;;
50433;SDS011;36361;38.954;-9.002;2023-02-26T06:08:03;20.37;;;7.13;;
50433;SDS011;36361;38.954;-9.002;2023-02-26T06:09:07;12.13;;;5.77;;
50433;SDS011;36361;38.954;-9.002;2023-02-26T06:10:08;13.13;;;5.70;;
50433;SDS011;36361;38.954;-9.002;2023-02-26T06:11:10;11.37;;;5.23;;
50433;SDS011;36361;38.954;-9.002;2023-02-26T06:12:12;10.93;;;5.40;;
50433;SDS011;36361;38.954;-9.002;2023-02-26T06:13:12;9.33;;;5.47;;
50433;SDS011;36361;38.954;-9.002;2023-02-26T06:14:13;9.90;;;5.80;;
50433;SDS011;36361;38.954;-9.002;2023-02-26T06:15:14;9.73;;;5.40;;
50433;SDS011;36361;38.954;-9.002;2023-02-26T06:16:15;9.97;;;5.60;;
50433;SDS011;36361;38.954;-9.002;2023-02-26T06:17:15;11.13;;;5.60;;
50433;SDS011;36361;38.954;-9.002;2023-02-26T06:18:16;17.53;;;9.73;;
50433;SDS011;36361;38.954;-9.002;2023-02-26T06:19:17;17.67;;;11.00;;
50433;SDS011;36361;38.954;-9.002;2023-02-26T06:20:18;20.97;;;11.20;;
50433;SDS011;36361;38.954;-9.002;2023-02-26T06:21:18;20.20;;;10.27;;
50433;SDS011;36361;38.954;-9.002;2023-02-26T06:22:19;19.23;;;10.50;;
50433;SDS011;36361;38.954;-9.002;2023-02-26T06:23:20;22.73;;;11.53;;
50433;SDS011;36361;38.954;-9.002;2023-02-26T06:24:20;30.33;;;14.93;;
50433;SDS011;36361;38.954;-9.002;2023-02-26T06:25:21;38.27;;;19.37;;
50433;SDS011;36361;38.954;-9.002;2023-02-26T06:26:22;35.47;;;18.57;;
50433;SDS011;36361;38.954;-9.002;2023-02-26T06:27:25;37.57;;;18.20;;
50433;SDS011;36361;38.954;-9.002;2023-02-26T06:28:26;38.30;;;18.10;;
50433;SDS011;36361;38.954;-9.002;2023-02-26T06:29:30;35.53;;;18.93;;
50433;SDS011;36361;38.954;-9.002;2023-02-26T06:30:30;52.17;;;18.13;;
50433;SDS011;36361;38.954;-9.002;2023-02-26T06:31:31;55.20;;;20.57;;
50433;SDS011;36361;38.954;-9.002;2023-02-26T06:32:32;54.63;;;22.40;;
50433;SDS011;36361;38.954;-9.002;2023-02-26T06:33:34;53.17;;;21.53;;
50433;SDS011;36361;38.954;-9.002;2023-02-26T06:34:35;81.40;;;22.33;;
50433;SDS011;36361;38.954;-9.002;2023-02-26T06:35:35;48.20;;;22.13;;
50433;SDS011;36361;38.954;-9.002;2023-02-26T06:36:39;36.97;;;21.50;;
50433;SDS011;36361;38.954;-9.002;2023-02-26T06:37:46;35.57;;;22.07;;
50433;SDS011;36361;38.954;-9.002;2023-02-26T06:38:53;45.03;;;23.47;;
50433;SDS011;36361;38.954;-9.002;2023-02-26T06:39:56;47.90;;;24.57;;
50433;SDS011;36361;38.954;-9.002;2023-02-26T06:40:57;41.00;;;21.23;;
50433;SDS011;36361;38.954;-9.002;2023-02-26T06:41:58;41.73;;;21.97;;
50433;SDS011;36361;38.954;-9.002;2023-02-26T06:42:59;36.33;;;21.20;;
50433;SDS011;36361;38.954;-9.002;2023-02-26T06:43:59;41.83;;;21.87;;
50433;SDS011;36361;38.954;-9.002;2023-02-26T06:45:00;37.37;;;21.73;;
50433;SDS011;36361;38.954;-9.002;2023-02-26T06:46:01;37.00;;;22.40;;
50433;SDS011;36361;38.954;-9.002;2023-02-26T06:47:02;31.00;;;19.70;;
50433;SDS011;36361;38.954;-9.002;2023-02-26T06:48:03;29.83;;;18.60;;
50433;SDS011;36361;38.954;-9.002;2023-02-26T06:49:04;28.37;;;16.23;;
50433;SDS011;36361;38.954;-9.002;2023-02-26T06:50:05;26.50;;;17.37;;
50433;SDS011;36361;38.954;-9.002;2023-02-26T06:51:06;27.00;;;16.30;;
50433;SDS011;36361;38.954;-9.002;2023-02-26T06:52:07;30.20;;;16.20;;
50433;SDS011;36361;38.954;-9.002;2023-02-26T06:53:08;20.93;;;14.43;;
50433;SDS011;36361;38.954;-9.002;2023-02-26T06:54:08;23.60;;;15.43;;
50433;SDS011;36361;38.954;-9.002;2023-02-26T06:55:12;23.40;;;15.03;;
50433;SDS011;36361;38.954;-9.002;2023-02-26T06:56:13;22.93;;;14.50;;
50433;SDS011;36361;38.954;-9.002;2023-02-26T06:57:17;23.43;;;13.97;;
50433;SDS011;36361;38.954;-9.002;2023-02-26T06:58:18;22.87;;;14.27;;
50433;SDS011;36361;38.954;-9.002;2023-02-26T06:59:19;18.83;;;13.27;;
50433;SDS011;36361;38.954;-9.002;2023-02-26T07:00:21;20.57;;;13.13;;
50433;SDS011;36361;38.954;-9.002;2023-02-26T07:01:23;22.83;;;15.07;;
50433;SDS011;36361;38.954;-9.002;2023-02-26T07:02:23;16.53;;;11.87;;
50433;SDS011;36361;38.954;-9.002;2023-02-26T07:03:24;18.50;;;12.77;;
50433;SDS011;36361;38.954;-9.002;2023-02-26T07:04:25;18.00;;;12.27;;
50433;SDS011;36361;38.954;-9.002;2023-02-26T07:05:25;18.53;;;12.70;;
50433;SDS011;36361;38.954;-9.002;2023-02-26T07:06:26;18.23;;;11.90;;
50433;SDS011;36361;38.954;-9.002;2023-02-26T07:07:27;17.67;;;12.43;;
50433;SDS011;36361;38.954;-9.002;2023-02-26T07:08:27;17.17;;;12.20;;
50433;SDS011;36361;38.954;-9.002;2023-02-26T07:09:28;16.30;;;11.33;;
50433;SDS011;36361;38.954;-9.002;2023-02-26T07:10:29;19.07;;;13.23;;
50433;SDS011;36361;38.954;-9.002;2023-02-26T07:11:31;16.30;;;12.43;;
50433;SDS011;36361;38.954;-9.002;2023-02-26T07:12:31;15.20;;;11.23;;
50433;SDS011;36361;38.954;-9.002;2023-02-26T07:13:32;16.30;;;12.53;;
50433;SDS011;36361;38.954;-9.002;2023-02-26T07:14:33;15.83;;;12.27;;